Terminal Aerodrome Forecast
Issued by NWS Charleston, WV

Home | Current Version | Previous Version | Text Only | Print | Product List | Glossary On
Versions: 1 2 3 4 5 6 7 8 9 10 11 12 13 14 15 16 17 18 19 20 21 22 23 24 25 26 27 28
168
FTUS41 KRLX 190257 AAA
TAFBKW
TAF AMD
KBKW 190257Z 1903/1924 20013G30KT 3SM SHRA OVC025
     FM190400 23013G30KT 3SM SHRA OVC010
     FM190600 27015G35KT P6SM -SHRA OVC010
     FM191100 30013G27KT P6SM -SHRASN OVC015
     FM191800 30012G22KT P6SM BKN025=

USA.gov is the U.S. government's official web portal to all federal, state and local government web resources and services.